Time;durP1;ratioP1;P1;durP2;ratioP2;P2;SDS_P1;SDS_P2;PMS_P1;PMS_P2;Temp;Humidity;BMP_temperature;BMP_pressure;BME280_temperature;BME280_humidity;BME280_pressure;Samples;Min_cycle;Max_cycle;Signal;HPM_P1;HPM_P2
2023/04/10 00:00:09;;;;;;;20.85;6.45;;;11.50;99.90;;;;;;4938618;29;20063;-82
2023/04/10 00:02:39;;;;;;;17.00;6.78;;;11.50;99.90;;;;;;4939997;29;20043;-82
2023/04/10 00:05:06;;;;;;;17.70;7.10;;;11.50;99.90;;;;;;4947817;28;20036;-82
2023/04/10 00:07:33;;;;;;;16.95;7.57;;;11.50;99.90;;;;;;4936566;29;20051;-82
2023/04/10 00:10:00;;;;;;;15.80;6.47;;;11.50;99.90;;;;;;4919548;29;20051;-82
2023/04/10 00:12:26;;;;;;;19.20;7.40;;;11.50;99.90;;;;;;4939797;29;20043;-82
2023/04/10 00:14:53;;;;;;;18.75;7.18;;;11.40;99.90;;;;;;4938865;29;20047;-81
2023/04/10 00:17:20;;;;;;;18.48;7.95;;;11.50;99.90;;;;;;4956708;29;20039;-82
2023/04/10 00:19:46;;;;;;;20.35;7.20;;;11.40;99.90;;;;;;4955110;28;20039;-82
2023/04/10 00:22:13;;;;;;;18.75;7.70;;;11.40;99.90;;;;;;4936551;29;20043;-82
2023/04/10 00:24:40;;;;;;;20.50;8.02;;;11.40;99.90;;;;;;4939684;28;20370;-82
2023/04/10 00:27:06;;;;;;;18.27;7.47;;;11.50;99.90;;;;;;4955844;29;20039;-82
2023/04/10 00:29:33;;;;;;;17.17;7.55;;;11.50;99.90;;;;;;4956018;29;20046;-82
2023/04/10 00:32:00;;;;;;;19.67;7.47;;;11.50;99.90;;;;;;4939527;29;20074;-82
2023/04/10 00:34:27;;;;;;;20.95;6.80;;;11.50;99.90;;;;;;4938444;29;20146;-82
2023/04/10 00:36:53;;;;;;;18.30;7.40;;;11.50;99.90;;;;;;4956340;29;20054;-81
2023/04/10 00:39:20;;;;;;;19.85;7.18;;;11.50;99.90;;;;;;4938210;29;20138;-82
2023/04/10 00:41:46;;;;;;;15.32;6.57;;;11.60;99.90;;;;;;4956331;28;20050;-82
2023/04/10 00:44:13;;;;;;;16.85;6.93;;;11.70;99.90;;;;;;4939646;29;20039;-82
2023/04/10 00:46:40;;;;;;;16.70;7.43;;;11.70;99.90;;;;;;4955344;28;20122;-81
2023/04/10 00:49:08;;;;;;;15.57;6.32;;;11.80;99.90;;;;;;4923551;29;20039;-82
2023/04/10 00:51:35;;;;;;;19.75;6.88;;;11.80;99.90;;;;;;4939725;28;20487;-81
2023/04/10 00:54:01;;;;;;;16.42;6.32;;;11.90;99.90;;;;;;4942253;29;20047;-81
2023/04/10 00:56:28;;;;;;;14.38;5.65;;;12.00;99.90;;;;;;4943355;29;20047;-81
2023/04/10 00:58:55;;;;;;;18.98;6.40;;;12.00;99.90;;;;;;4960006;28;20094;-81
2023/04/10 01:01:21;;;;;;;15.38;6.13;;;12.10;99.90;;;;;;4942120;29;20179;-82
2023/04/10 01:03:48;;;;;;;16.55;6.00;;;12.20;99.90;;;;;;4943309;29;20139;-82
2023/04/10 01:06:15;;;;;;;17.15;6.78;;;12.20;99.90;;;;;;4941767;29;20336;-82
2023/04/10 01:08:42;;;;;;;16.75;6.60;;;12.20;99.90;;;;;;4943340;29;20399;-81
2023/04/10 01:11:08;;;;;;;13.85;6.00;;;12.30;99.90;;;;;;4942811;29;20046;-82
2023/04/10 01:13:35;;;;;;;15.13;6.18;;;12.30;99.90;;;;;;4941834;29;20043;-81
2023/04/10 01:16:02;;;;;;;14.48;6.25;;;12.40;99.90;;;;;;4927331;29;20043;-81
2023/04/10 01:18:28;;;;;;;14.32;6.30;;;12.40;99.90;;;;;;4942721;29;20047;-81
2023/04/10 01:20:56;;;;;;;14.43;6.32;;;12.40;99.90;;;;;;4941394;29;20061;-81
2023/04/10 01:23:23;;;;;;;18.45;6.90;;;12.40;99.90;;;;;;4942994;29;20050;-81
2023/04/10 01:25:50;;;;;;;17.45;6.90;;;12.50;99.90;;;;;;4942799;29;20054;-81
2023/04/10 01:28:17;;;;;;;15.40;6.57;;;12.50;99.90;;;;;;4941822;29;20067;-81
2023/04/10 01:30:44;;;;;;;15.93;6.68;;;12.40;99.90;;;;;;4959359;28;20090;-82
2023/04/10 01:33:11;;;;;;;20.05;7.50;;;12.50;99.90;;;;;;4941482;29;20047;-81
2023/04/10 01:35:37;;;;;;;15.82;6.32;;;12.40;99.90;;;;;;4927183;29;20054;-81
2023/04/10 01:38:04;;;;;;;18.17;6.72;;;12.40;99.90;;;;;;4942568;29;20055;-82
2023/04/10 01:40:31;;;;;;;15.15;6.47;;;12.40;99.90;;;;;;4941018;29;20047;-82
2023/04/10 01:42:58;;;;;;;14.77;6.07;;;12.40;99.90;;;;;;4926924;29;20098;-81
2023/04/10 01:45:33;;;;;;;15.10;5.90;;;12.40;99.90;;;;;;4942583;29;20039;-81
2023/04/10 01:48:00;;;;;;;19.55;7.13;;;12.30;99.90;;;;;;4941547;29;20454;-83
2023/04/10 01:50:27;;;;;;;14.25;6.63;;;12.30;99.90;;;;;;4942018;29;20047;-81
2023/04/10 01:52:57;;;;;;;25.45;6.57;;;12.30;99.90;;;;;;4941965;29;20344;-82
2023/04/10 01:55:25;;;;;;;17.50;6.25;;;12.30;99.90;;;;;;4942402;29;20051;-82
2023/04/10 01:57:59;;;;;;;14.52;6.65;;;12.30;99.90;;;;;;4942180;29;20051;-82
2023/04/10 02:00:27;;;;;;;16.55;6.75;;;12.30;99.90;;;;;;4924922;28;20378;-81
2023/04/10 02:02:54;;;;;;;17.50;7.03;;;12.30;99.90;;;;;;4925936;29;20043;-81
2023/04/10 02:05:21;;;;;;;17.58;6.68;;;12.30;99.90;;;;;;4942063;29;20047;-81
2023/04/10 02:07:48;;;;;;;19.00;6.20;;;12.30;99.90;;;;;;4941326;29;20134;-82
2023/04/10 02:10:15;;;;;;;19.13;6.70;;;12.30;99.90;;;;;;4941663;29;20082;-81
2023/04/10 02:12:42;;;;;;;15.68;6.15;;;12.30;99.90;;;;;;4925038;28;20062;-82
2023/04/10 02:15:08;;;;;;;18.98;6.78;;;12.30;99.90;;;;;;4941900;29;20043;-82
2023/04/10 02:17:35;;;;;;;16.67;5.85;;;12.20;99.90;;;;;;4942064;29;20039;-82
2023/04/10 02:20:02;;;;;;;17.50;5.97;;;12.30;99.90;;;;;;4940299;29;20099;-81
2023/04/10 02:22:29;;;;;;;14.70;5.90;;;12.20;99.90;;;;;;4941698;29;20035;-82
2023/04/10 02:24:56;;;;;;;17.30;5.90;;;12.30;99.90;;;;;;4941702;29;20047;-81
2023/04/10 02:27:23;;;;;;;15.07;5.75;;;12.30;99.90;;;;;;4957428;28;20062;-81
2023/04/10 02:29:50;;;;;;;15.65;6.63;;;12.20;99.90;;;;;;4941355;29;20053;-82
2023/04/10 02:32:18;;;;;;;15.43;6.00;;;12.20;99.90;;;;;;4925902;29;20043;-81
2023/04/10 02:34:45;;;;;;;16.33;5.80;;;12.10;99.90;;;;;;4941212;29;20042;-82
2023/04/10 02:37:12;;;;;;;13.80;5.63;;;12.00;99.90;;;;;;4959259;29;20035;-82
2023/04/10 02:39:40;;;;;;;13.85;5.68;;;11.90;99.90;;;;;;4940530;28;20047;-82
2023/04/10 02:42:07;;;;;;;14.15;5.75;;;11.80;99.90;;;;;;4926009;28;20044;-82
2023/04/10 02:44:34;;;;;;;18.35;6.50;;;11.70;99.90;;;;;;4941703;29;20051;-83
2023/04/10 02:47:01;;;;;;;16.27;6.30;;;11.60;99.90;;;;;;4940436;29;20067;-84
2023/04/10 02:49:30;;;;;;;15.48;5.93;;;11.60;99.90;;;;;;4940784;29;20062;-84
2023/04/10 02:52:07;;;;;;;16.98;5.72;;;11.50;99.90;;;;;;4926198;29;20043;-83
2023/04/10 02:54:34;;;;;;;15.48;5.75;;;11.50;99.90;;;;;;4940321;28;20044;-83
2023/04/10 02:57:01;;;;;;;13.00;4.68;;;11.50;99.90;;;;;;4941152;29;20043;-82
2023/04/10 02:59:27;;;;;;;14.48;6.05;;;11.50;99.90;;;;;;4939646;29;20047;-83
2023/04/10 03:01:54;;;;;;;17.90;5.40;;;11.40;99.90;;;;;;4956915;28;20043;-83
2023/04/10 03:04:22;;;;;;;12.02;5.18;;;11.40;99.90;;;;;;4953481;28;20102;-83
2023/04/10 03:06:49;;;;;;;15.30;5.85;;;11.40;99.90;;;;;;4931294;29;20138;-84
2023/04/10 03:09:16;;;;;;;12.43;5.13;;;11.40;99.90;;;;;;4941135;28;20085;-84
2023/04/10 03:11:43;;;;;;;14.07;5.00;;;11.30;99.90;;;;;;4925000;29;20047;-83
2023/04/10 03:14:10;;;;;;;15.77;4.78;;;11.40;99.90;;;;;;4939270;29;20489;-83
2023/04/10 03:16:36;;;;;;;12.20;4.57;;;11.30;99.90;;;;;;4924930;29;20549;-83
2023/04/10 03:19:03;;;;;;;17.45;5.22;;;11.30;99.90;;;;;;4940727;29;20134;-82
2023/04/10 03:21:30;;;;;;;16.88;5.20;;;11.30;99.90;;;;;;4923825;28;20083;-82
2023/04/10 03:23:57;;;;;;;16.60;4.68;;;11.30;99.90;;;;;;4940170;29;20054;-83
2023/04/10 03:26:24;;;;;;;11.95;4.60;;;11.30;99.90;;;;;;4939822;29;20043;-82
2023/04/10 03:28:51;;;;;;;12.82;4.95;;;11.30;99.90;;;;;;4940628;29;20055;-82
2023/04/10 03:31:18;;;;;;;9.80;4.30;;;11.30;99.90;;;;;;4940323;29;20047;-83
2023/04/10 03:33:45;;;;;;;11.88;4.80;;;11.30;99.90;;;;;;4939039;29;20065;-83
2023/04/10 03:36:12;;;;;;;12.82;4.88;;;11.30;99.90;;;;;;4939537;29;20058;-82
2023/04/10 03:38:39;;;;;;;12.25;4.75;;;11.30;99.90;;;;;;4938512;29;20058;-82
2023/04/10 03:41:07;;;;;;;12.98;4.28;;;11.30;99.90;;;;;;4923821;29;20047;-82
2023/04/10 03:43:34;;;;;;;12.57;4.40;;;11.30;99.90;;;;;;4939904;29;20074;-82
2023/04/10 03:46:02;;;;;;;12.25;3.97;;;11.30;99.90;;;;;;4939283;29;20039;-82
2023/04/10 03:48:30;;;;;;;15.15;4.32;;;11.30;99.90;;;;;;4940472;29;20458;-82
2023/04/10 03:50:57;;;;;;;10.57;4.22;;;11.30;99.90;;;;;;4940177;29;20474;-82
2023/04/10 03:53:24;;;;;;;10.55;3.88;;;11.30;99.90;;;;;;4939046;29;20047;-82
2023/04/10 03:55:52;;;;;;;12.25;4.35;;;11.20;99.90;;;;;;4924514;29;20050;-82
2023/04/10 03:58:21;;;;;;;10.73;3.90;;;11.20;99.90;;;;;;4939901;29;20047;-82
2023/04/10 04:00:48;;;;;;;9.48;3.78;;;11.20;99.90;;;;;;4923351;29;20050;-82
2023/04/10 04:03:41;;;;;;;13.05;3.58;;;11.20;99.90;;;;;;4914705;28;20043;-82
2023/04/10 04:06:27;;;;;;;10.23;4.28;;;11.20;99.90;;;;;;4941932;29;20134;-82
2023/04/10 04:09:06;;;;;;;7.60;3.35;;;11.10;99.90;;;;;;4925689;29;20130;-82
2023/04/10 04:12:11;;;;;;;9.23;3.55;;;11.10;99.90;;;;;;4898277;29;20181;-83
2023/04/10 04:15:13;;;;;;;12.45;3.63;;;11.10;99.90;;;;;;4882513;29;20052;-83
2023/04/10 04:17:54;;;;;;;9.32;3.60;;;11.10;99.90;;;;;;4929013;29;20138;-83
2023/04/10 04:20:35;;;;;;;11.23;3.50;;;11.00;99.90;;;;;;4938680;29;20143;-83
2023/04/10 04:23:25;;;;;;;7.63;3.47;;;10.90;99.90;;;;;;4916406;29;20058;-83
2023/04/10 04:26:23;;;;;;;8.77;3.33;;;10.80;99.90;;;;;;4938670;29;20051;-83
2023/04/10 04:29:22;;;;;;;11.50;3.55;;;10.70;99.90;;;;;;4902725;29;20176;-83
2023/04/10 04:32:02;;;;;;;10.30;3.42;;;10.70;99.90;;;;;;4939915;29;20113;-82
2023/04/10 04:34:38;;;;;;;12.23;3.67;;;10.70;99.90;;;;;;4923643;28;20055;-83
2023/04/10 04:37:34;;;;;;;10.85;3.70;;;10.70;99.90;;;;;;4927693;29;20055;-83
2023/04/10 04:40:30;;;;;;;7.65;3.08;;;10.60;99.90;;;;;;4882450;29;20058;-82
2023/04/10 04:43:04;;;;;;;9.18;2.85;;;10.60;99.90;;;;;;4939732;29;20083;-83
2023/04/10 04:45:55;;;;;;;7.90;3.13;;;10.60;99.90;;;;;;4926878;29;20039;-83
2023/04/10 04:48:37;;;;;;;9.90;3.10;;;10.60;99.90;;;;;;4939570;29;20047;-85
2023/04/10 04:51:19;;;;;;;8.90;3.40;;;10.60;99.90;;;;;;4925740;28;20062;-82
2023/04/10 04:53:55;;;;;;;9.63;3.10;;;10.60;99.90;;;;;;4923624;29;20043;-82
2023/04/10 04:56:40;;;;;;;8.93;3.25;;;10.50;99.90;;;;;;4942178;29;20089;-82
2023/04/10 04:59:27;;;;;;;7.22;3.03;;;10.50;99.90;;;;;;4928748;29;20054;-85
2023/04/10 05:02:04;;;;;;;9.10;3.47;;;10.50;99.90;;;;;;4905983;29;20063;-82
2023/04/10 05:04:40;;;;;;;12.98;3.22;;;10.50;99.90;;;;;;4906100;29;20051;-82
2023/04/10 05:07:30;;;;;;;8.10;3.50;;;10.50;99.90;;;;;;4922475;29;20154;-83
2023/04/10 05:10:11;;;;;;;8.57;3.58;;;10.50;99.90;;;;;;4920471;29;20056;-83
2023/04/10 05:12:57;;;;;;;6.50;2.80;;;10.50;99.90;;;;;;4922450;29;20079;-83
2023/04/10 05:15:34;;;;;;;10.48;3.38;;;10.50;99.90;;;;;;4905580;29;20056;-82
2023/04/10 05:18:22;;;;;;;7.93;3.00;;;10.50;99.90;;;;;;4922525;29;20062;-83
2023/04/10 05:20:57;;;;;;;9.02;3.00;;;10.50;99.90;;;;;;4919510;29;20054;-84
2023/04/10 05:23:38;;;;;;;6.97;2.53;;;10.50;99.90;;;;;;4919825;29;20390;-83
2023/04/10 05:26:23;;;;;;;7.72;2.70;;;10.50;99.90;;;;;;4935945;29;20191;-82
2023/04/10 05:29:16;;;;;;;6.15;2.60;;;10.50;99.90;;;;;;4914793;29;20471;-83
2023/04/10 05:32:01;;;;;;;6.28;2.33;;;10.50;99.90;;;;;;4923297;29;20158;-83
2023/04/10 05:34:51;;;;;;;6.70;2.60;;;10.50;99.90;;;;;;4914426;29;20055;-83
2023/04/10 05:37:29;;;;;;;8.07;2.80;;;10.50;99.90;;;;;;4906115;29;20055;-83
2023/04/10 05:40:14;;;;;;;8.80;2.63;;;10.50;99.90;;;;;;4925493;29;20066;-82
2023/04/10 05:42:54;;;;;;;5.78;2.42;;;10.50;99.90;;;;;;4909691;29;20055;-84
2023/04/10 05:45:27;;;;;;;7.63;2.60;;;10.60;99.90;;;;;;4923152;29;20471;-84
2023/04/10 05:47:56;;;;;;;6.55;2.45;;;10.60;99.90;;;;;;4923365;29;20051;-83
2023/04/10 05:50:42;;;;;;;6.00;2.50;;;10.60;99.90;;;;;;4940305;29;20123;-84
2023/04/10 05:53:30;;;;;;;5.47;2.30;;;10.60;99.90;;;;;;4909044;29;20534;-84
2023/04/10 05:56:14;;;;;;;6.95;2.50;;;10.60;99.90;;;;;;4910082;29;20071;-84
2023/04/10 05:58:41;;;;;;;8.45;2.15;;;10.70;99.90;;;;;;4940638;29;20048;-84
2023/04/10 06:01:13;;;;;;;6.35;2.60;;;10.70;99.90;;;;;;4932184;29;20043;-84
2023/04/10 06:04:02;;;;;;;8.88;2.70;;;10.70;99.90;;;;;;4941828;28;20054;-84
2023/04/10 06:06:29;;;;;;;7.90;2.58;;;10.70;99.90;;;;;;4925242;29;20075;-83
2023/04/10 06:08:56;;;;;;;8.00;2.80;;;10.70;99.90;;;;;;4926461;29;20142;-83
2023/04/10 06:11:23;;;;;;;7.07;2.88;;;10.70;99.90;;;;;;4942109;29;20102;-83
2023/04/10 06:13:53;;;;;;;8.38;3.08;;;10.70;99.90;;;;;;4940789;29;20047;-85
2023/04/10 06:16:27;;;;;;;7.05;2.95;;;10.70;99.90;;;;;;4941800;29;20051;-85
2023/04/10 06:18:53;;;;;;;6.82;2.70;;;10.80;99.90;;;;;;4941997;29;20051;-83
2023/04/10 06:21:20;;;;;;;6.75;2.80;;;10.80;99.90;;;;;;4940714;29;20430;-83
2023/04/10 06:23:47;;;;;;;8.38;2.95;;;10.80;99.90;;;;;;4941527;29;20110;-83
2023/04/10 06:26:14;;;;;;;6.93;2.80;;;10.80;99.90;;;;;;4940851;29;20047;-82
2023/04/10 06:28:41;;;;;;;7.03;3.45;;;10.70;99.90;;;;;;4958635;28;20188;-83
2023/04/10 06:31:07;;;;;;;7.10;3.08;;;10.70;99.90;;;;;;4925710;29;20047;-82
2023/04/10 06:33:36;;;;;;;7.90;3.45;;;10.70;99.90;;;;;;4940226;29;20047;-83
2023/04/10 06:36:05;;;;;;;6.10;2.60;;;10.70;99.90;;;;;;4941751;29;20114;-80
2023/04/10 06:38:37;;;;;;;;;;;10.70;99.90;;;;;;4926892;29;20073;-82
2023/04/10 06:41:05;;;;;;;6.90;2.80;;;10.80;99.90;;;;;;4929953;29;20261;-82
2023/04/10 06:43:31;;;;;;;6.75;2.65;;;10.80;99.90;;;;;;4940106;29;20050;-83
2023/04/10 06:45:58;;;;;;;7.95;2.80;;;10.80;99.90;;;;;;4937005;29;20048;-82
2023/04/10 06:48:29;;;;;;;7.75;2.65;;;10.80;99.90;;;;;;4938369;28;20489;-83
2023/04/10 06:50:56;;;;;;;8.77;3.05;;;10.80;99.90;;;;;;4949806;28;20044;-83
2023/04/10 06:53:22;;;;;;;6.68;3.05;;;10.80;99.90;;;;;;4945167;28;20032;-82
2023/04/10 06:55:49;;;;;;;6.57;2.97;;;10.80;99.90;;;;;;4948340;28;20046;-82
2023/04/10 06:58:16;;;;;;;6.15;2.70;;;10.80;99.90;;;;;;4959097;28;20050;-82
2023/04/10 07:00:43;;;;;;;7.38;2.70;;;10.80;99.90;;;;;;4939839;29;20047;-83
2023/04/10 07:03:09;;;;;;;5.93;2.67;;;10.80;99.90;;;;;;4957300;29;20043;-81
2023/04/10 07:05:36;;;;;;;7.65;3.00;;;10.80;99.90;;;;;;4940399;29;20422;-82
2023/04/10 07:08:06;;;;;;;6.22;2.60;;;10.90;99.90;;;;;;4955916;29;20047;-82
2023/04/10 07:10:33;;;;;;;7.53;2.90;;;10.90;99.90;;;;;;4940572;29;20359;-81
2023/04/10 07:12:59;;;;;;;7.85;2.90;;;10.90;99.90;;;;;;4939854;29;20055;-81
2023/04/10 07:15:26;;;;;;;8.10;2.75;;;10.90;99.90;;;;;;4940527;29;20455;-82
2023/04/10 07:17:53;;;;;;;6.68;2.63;;;10.90;99.90;;;;;;4940977;29;20047;-84
2023/04/10 07:20:19;;;;;;;7.93;2.60;;;10.90;99.90;;;;;;4939911;29;20102;-81
2023/04/10 07:22:46;;;;;;;5.70;2.50;;;10.80;99.90;;;;;;4957421;29;20047;-81
2023/04/10 07:25:13;;;;;;;6.30;2.20;;;10.80;99.90;;;;;;4940107;29;20043;-82
2023/04/10 07:27:40;;;;;;;9.13;2.45;;;10.80;99.90;;;;;;4956462;29;20047;-81
2023/04/10 07:30:07;;;;;;;6.35;2.50;;;10.80;99.90;;;;;;4924685;29;20047;-81
2023/04/10 07:32:33;;;;;;;6.72;2.42;;;10.80;99.90;;;;;;4942564;28;20048;-79
2023/04/10 07:35:00;;;;;;;9.07;2.45;;;10.70;99.90;;;;;;4931886;29;20077;-81
2023/04/10 07:37:27;;;;;;;6.38;2.10;;;10.70;99.90;;;;;;4933396;28;20043;-81
2023/04/10 07:39:54;;;;;;;6.38;2.45;;;10.70;99.90;;;;;;4954230;28;20046;-81
2023/04/10 07:42:21;;;;;;;6.65;2.63;;;10.80;99.90;;;;;;4939927;29;20047;-81
2023/04/10 07:45:02;;;;;;;9.43;2.60;;;10.80;99.90;;;;;;4941202;29;20039;-80
2023/04/10 07:47:29;;;;;;;7.45;2.53;;;10.80;99.90;;;;;;4944346;29;20466;-81
2023/04/10 07:49:55;;;;;;;8.52;2.67;;;10.80;99.90;;;;;;4930352;29;20405;-81
2023/04/10 07:52:22;;;;;;;6.85;2.45;;;10.80;99.90;;;;;;4945007;29;20039;-80
2023/04/10 07:54:49;;;;;;;6.55;2.25;;;10.80;99.90;;;;;;4942815;28;20054;-83
2023/04/10 07:57:16;;;;;;;6.85;2.60;;;10.80;99.90;;;;;;4915027;29;20035;-82
2023/04/10 07:59:42;;;;;;;7.95;2.30;;;10.80;99.90;;;;;;4946212;28;20057;-80
2023/04/10 08:02:09;;;;;;;5.82;2.33;;;10.80;99.90;;;;;;4951662;28;20043;-81
2023/04/10 08:04:36;;;;;;;6.20;2.60;;;10.80;99.90;;;;;;4933410;29;20098;-82
2023/04/10 08:07:03;;;;;;;6.30;2.10;;;10.90;99.90;;;;;;4930073;29;20047;-79
2023/04/10 08:09:30;;;;;;;6.68;2.70;;;10.90;99.90;;;;;;4923214;29;20047;-80
2023/04/10 08:11:57;;;;;;;9.85;3.08;;;10.90;99.90;;;;;;4921699;29;20039;-80
2023/04/10 08:14:23;;;;;;;7.68;2.50;;;10.90;99.90;;;;;;4913545;29;20039;-80
2023/04/10 08:16:50;;;;;;;6.20;2.42;;;10.90;99.90;;;;;;4931960;29;20036;-80
2023/04/10 08:19:17;;;;;;;5.63;2.30;;;11.00;99.90;;;;;;4923289;28;20054;-80
2023/04/10 08:21:43;;;;;;;8.80;2.40;;;11.00;99.90;;;;;;4945023;28;20147;-81
2023/04/10 08:24:10;;;;;;;8.60;2.53;;;11.10;99.90;;;;;;4939293;28;20122;-81
2023/04/10 08:26:37;;;;;;;5.65;2.38;;;11.10;99.90;;;;;;4929319;29;20467;-81
2023/04/10 08:29:04;;;;;;;5.43;2.15;;;11.10;99.90;;;;;;4938766;29;20114;-81
2023/04/10 08:31:30;;;;;;;7.18;2.03;;;11.20;99.90;;;;;;4955530;28;20378;-81
2023/04/10 08:33:57;;;;;;;6.60;1.88;;;11.20;99.90;;;;;;4954563;28;20073;-81
2023/04/10 08:36:26;;;;;;;5.63;1.90;;;11.10;99.90;;;;;;4939486;29;20438;-82
2023/04/10 08:38:52;;;;;;;7.10;2.05;;;11.20;99.90;;;;;;4937411;29;20501;-81
2023/04/10 08:41:19;;;;;;;7.78;2.17;;;11.20;99.90;;;;;;4938024;29;20106;-81
2023/04/10 08:43:46;;;;;;;5.47;2.00;;;11.10;99.90;;;;;;4955132;28;20122;-80
2023/04/10 08:46:13;;;;;;;5.75;1.92;;;11.20;99.90;;;;;;4937558;29;20035;-80
2023/04/10 08:48:40;;;;;;;4.47;1.70;;;11.20;99.90;;;;;;4945016;28;20098;-81
2023/04/10 08:51:21;;;;;;;5.05;1.75;;;11.20;99.90;;;;;;4931982;29;20051;-83
2023/04/10 08:53:52;;;;;;;7.30;2.20;;;11.30;99.90;;;;;;4938118;29;20047;-80
2023/04/10 08:56:19;;;;;;;6.03;1.58;;;11.30;99.90;;;;;;4947670;28;20036;-82
2023/04/10 08:58:46;;;;;;;4.82;1.70;;;11.30;99.90;;;;;;4912042;29;20055;-80
2023/04/10 09:01:13;;;;;;;6.22;1.70;;;11.30;99.90;;;;;;4942934;29;20043;-80
2023/04/10 09:03:40;;;;;;;3.92;1.40;;;11.30;99.90;;;;;;4941886;29;20063;-79
2023/04/10 09:06:07;;;;;;;5.70;1.30;;;11.30;99.90;;;;;;4926324;29;20379;-80
2023/04/10 09:08:34;;;;;;;4.13;1.50;;;11.20;99.90;;;;;;4929837;29;20046;-79
2023/04/10 09:11:00;;;;;;;3.95;1.20;;;11.20;99.90;;;;;;4935591;29;20050;-79
2023/04/10 09:13:27;;;;;;;3.28;1.20;;;11.20;99.90;;;;;;4928766;29;20044;-79
2023/04/10 09:15:54;;;;;;;3.53;1.25;;;11.30;99.90;;;;;;4931449;29;20063;-79
2023/04/10 09:18:20;;;;;;;2.75;1.15;;;11.30;99.90;;;;;;4939285;29;20051;-78
2023/04/10 09:20:50;;;;;;;2.40;1.00;;;11.30;99.90;;;;;;4938667;29;20107;-79
2023/04/10 09:23:17;;;;;;;5.20;1.08;;;11.40;99.90;;;;;;4938932;29;20478;-81
2023/04/10 09:25:43;;;;;;;1.95;1.00;;;11.40;99.90;;;;;;4939754;29;20047;-80
2023/04/10 09:28:10;;;;;;;1.50;0.90;;;11.40;99.90;;;;;;4939228;29;20043;-81
2023/04/10 09:30:38;;;;;;;1.05;0.80;;;11.40;99.90;;;;;;4933471;29;20087;-82
2023/04/10 09:33:05;;;;;;;2.22;0.90;;;11.50;99.90;;;;;;4938532;29;20105;-82
2023/04/10 09:35:31;;;;;;;1.55;0.90;;;11.50;99.90;;;;;;4933276;29;20086;-83
2023/04/10 09:37:58;;;;;;;2.33;0.90;;;11.60;99.90;;;;;;4939231;29;20051;-83
2023/04/10 09:40:25;;;;;;;1.60;0.90;;;11.60;99.90;;;;;;4938700;29;20039;-84
2023/04/10 09:42:52;;;;;;;2.60;1.00;;;11.60;99.90;;;;;;4939032;29;20127;-83
2023/04/10 09:45:21;;;;;;;1.92;0.80;;;11.70;99.90;;;;;;4933629;29;20040;-83
2023/04/10 09:47:48;;;;;;;1.98;0.82;;;11.70;99.90;;;;;;4938611;29;20044;-83
2023/04/10 09:50:15;;;;;;;1.33;0.80;;;11.70;99.90;;;;;;4939213;29;20048;-84
2023/04/10 09:52:42;;;;;;;1.80;1.00;;;11.70;99.90;;;;;;4938448;29;20047;-81
2023/04/10 09:55:09;;;;;;;2.08;0.90;;;11.70;99.90;;;;;;4938831;29;20043;-84
2023/04/10 09:57:36;;;;;;;2.15;1.00;;;11.70;99.90;;;;;;4923260;29;20059;-83
2023/04/10 10:00:03;;;;;;;1.35;0.80;;;11.60;99.90;;;;;;4938835;29;20044;-83
2023/04/10 10:02:33;;;;;;;1.77;0.88;;;11.60;99.90;;;;;;4940234;29;20099;-83
2023/04/10 10:07:30;;;;;;;1.25;0.80;;;11.50;99.90;;;;;;4937695;29;20055;-81
2023/04/10 10:09:57;;;;;;;2.00;0.95;;;11.60;99.90;;;;;;4938660;29;20134;-81
2023/04/10 10:12:23;;;;;;;0.90;0.80;;;11.60;99.90;;;;;;4923497;29;20044;-81
2023/04/10 10:17:35;;;;;;;3.30;0.70;;;11.60;99.90;;;;;;4939431;29;20490;-82
2023/04/10 10:20:02;;;;;;;1.83;0.82;;;11.60;99.90;;;;;;4918923;29;20044;-82
2023/04/10 10:22:29;;;;;;;2.22;1.00;;;11.70;99.90;;;;;;4919172;29;20075;-82
2023/04/10 10:27:42;;;;;;;1.50;0.80;;;11.70;99.90;;;;;;4928169;29;20047;-82
2023/04/10 10:30:08;;;;;;;3.08;1.20;;;11.70;99.90;;;;;;4922339;29;20039;-81
2023/04/10 10:32:54;;;;;;;2.05;0.90;;;11.70;99.90;;;;;;4937522;29;20051;-81
2023/04/10 10:38:06;;;;;;;3.40;0.90;;;11.80;99.90;;;;;;4939089;28;20051;-81
2023/04/10 10:40:33;;;;;;;2.35;1.02;;;11.80;99.90;;;;;;4937747;29;20047;-81
2023/04/10 10:43:00;;;;;;;2.53;1.10;;;11.80;99.90;;;;;;4937966;29;20151;-83
2023/04/10 10:45:29;;;;;;;2.92;1.10;;;11.80;99.90;;;;;;4922382;29;20067;-81
2023/04/10 10:47:56;;;;;;;2.40;1.02;;;11.80;99.90;;;;;;4938516;29;20079;-82
2023/04/10 10:50:22;;;;;;;5.40;1.10;;;11.90;99.90;;;;;;4922570;29;20074;-80
2023/04/10 10:52:56;;;;;;;2.20;1.00;;;11.80;99.90;;;;;;4921537;29;20055;-82
2023/04/10 10:55:44;;;;;;;3.40;1.20;;;11.90;99.90;;;;;;4939031;29;20043;-81
2023/04/10 10:58:11;;;;;;;2.83;1.05;;;11.90;99.90;;;;;;4938103;29;20052;-83
2023/04/10 11:00:37;;;;;;;4.05;1.15;;;12.00;99.90;;;;;;4918907;29;20048;-83
2023/04/10 11:03:04;;;;;;;7.50;1.20;;;12.00;99.90;;;;;;4927132;29;20043;-82
2023/04/10 11:05:31;;;;;;;8.48;1.77;;;12.10;99.90;;;;;;4929618;29;20095;-82
2023/04/10 11:07:58;;;;;;;5.75;1.65;;;12.10;99.90;;;;;;4891433;29;20127;-83
2023/04/10 11:10:24;;;;;;;4.82;1.40;;;12.10;99.90;;;;;;4906984;29;20460;-84
2023/04/10 11:12:51;;;;;;;5.88;1.60;;;12.00;99.90;;;;;;4898591;29;20139;-84
2023/04/10 11:18:08;;;;;;;9.70;2.03;;;12.00;99.90;;;;;;4918977;29;20510;-83
2023/04/10 11:20:35;;;;;;;6.05;1.92;;;12.00;99.90;;;;;;4917818;29;20040;-82
2023/04/10 11:23:01;;;;;;;10.30;2.58;;;12.00;99.90;;;;;;4918546;29;20048;-82
2023/04/10 11:28:15;;;;;;;4.28;1.45;;;12.00;99.90;;;;;;4917711;29;20068;-82
2023/04/10 11:30:41;;;;;;;7.20;1.75;;;12.10;99.90;;;;;;4890536;29;20052;-82
2023/04/10 11:33:08;;;;;;;9.35;2.50;;;12.10;99.90;;;;;;4908999;29;20044;-84
2023/04/10 11:35:35;;;;;;;8.55;1.83;;;12.30;99.90;;;;;;4898808;29;20376;-83
2023/04/10 11:38:02;;;;;;;8.38;1.85;;;12.40;99.90;;;;;;4899614;29;20041;-84
2023/04/10 11:40:28;;;;;;;13.35;2.53;;;12.60;99.90;;;;;;4906989;29;20136;-88
2023/04/10 11:42:55;;;;;;;6.70;2.45;;;12.70;99.90;;;;;;4915329;29;20044;-85
2023/04/10 11:48:08;;;;;;;10.23;1.98;;;13.00;99.90;;;;;;4916431;29;20056;-84
2023/04/10 11:50:35;;;;;;;12.90;1.90;;;13.10;99.90;;;;;;4916380;29;20048;-87
2023/04/10 11:53:01;;;;;;;13.88;2.20;;;13.10;99.90;;;;;;4931484;29;20044;-85
2023/04/10 11:55:28;;;;;;;13.38;2.67;;;13.10;99.90;;;;;;4901107;29;20372;-83
2023/04/10 11:57:55;;;;;;;11.70;2.28;;;13.10;99.90;;;;;;4899067;29;20044;-84
2023/04/10 12:00:23;;;;;;;8.20;1.75;;;13.10;99.90;;;;;;4914018;29;20041;-84
2023/04/10 12:02:50;;;;;;;11.10;2.00;;;13.10;99.90;;;;;;4930062;29;20085;-84
2023/04/10 12:07:47;;;;;;;12.73;2.10;;;13.30;99.90;;;;;;4934258;29;20064;-83
2023/04/10 12:10:14;;;;;;;10.90;1.90;;;13.30;99.90;;;;;;4920994;29;20036;-85
2023/04/10 12:12:41;;;;;;;11.23;2.30;;;13.50;99.90;;;;;;4919786;29;20447;-81
2023/04/10 12:17:38;;;;;;;10.70;2.42;;;13.70;99.90;;;;;;4920768;29;20526;-83
2023/04/10 12:20:05;;;;;;;10.00;2.25;;;13.60;99.90;;;;;;4935682;29;20048;-82
2023/04/10 12:22:31;;;;;;;10.35;2.20;;;13.70;99.90;;;;;;4937278;29;20047;-83
2023/04/10 12:25:00;;;;;;;8.80;2.50;;;13.70;99.90;;;;;;4936368;29;20054;-83
2023/04/10 12:27:27;;;;;;;16.67;2.17;;;13.80;99.90;;;;;;4951986;29;20047;-84
2023/04/10 12:29:54;;;;;;;12.35;2.70;;;14.00;99.90;;;;;;4936559;29;20481;-83
2023/04/10 12:32:21;;;;;;;13.80;3.25;;;14.40;99.90;;;;;;4936875;29;20146;-85
2023/04/10 12:34:50;;;;;;;11.38;2.30;;;14.80;99.90;;;;;;4952083;29;20040;-88
2023/04/10 12:37:17;;;;;;;11.13;2.33;;;14.90;99.90;;;;;;4953190;29;20134;-83
2023/04/10 12:39:44;;;;;;;10.13;2.28;;;15.30;99.90;;;;;;4951699;29;20044;-83
2023/04/10 12:42:10;;;;;;;14.60;2.70;;;15.90;99.90;;;;;;4936286;29;20471;-84
2023/04/10 12:47:09;;;;;;;;;;;16.40;99.90;;;;;;4938709;29;20039;-84
2023/04/10 12:49:35;;;;;;;16.98;2.70;;;16.50;99.90;;;;;;4940667;29;19959;-85
2023/04/10 12:52:02;;;;;;;10.23;2.20;;;16.60;99.90;;;;;;4924782;29;20051;-82
2023/04/10 12:54:30;;;;;;;12.63;2.53;;;16.80;99.90;;;;;;4939255;29;20438;-84
2023/04/10 12:56:57;;;;;;;16.02;2.78;;;16.70;99.90;;;;;;4956177;29;20390;-82
2023/04/10 12:59:25;;;;;;;13.98;2.53;;;16.60;99.90;;;;;;4949313;29;20070;-82
2023/04/10 13:01:52;;;;;;;14.00;2.78;;;16.80;99.90;;;;;;4943826;29;20047;-83
2023/04/10 13:04:19;;;;;;;13.57;2.65;;;17.20;99.90;;;;;;4959901;29;20410;-84
2023/04/10 13:06:46;;;;;;;9.43;2.47;;;17.20;99.90;;;;;;4959393;29;20425;-86
2023/04/10 13:09:15;;;;;;;10.82;2.30;;;17.40;99.90;;;;;;4927809;28;20051;-85
2023/04/10 13:11:41;;;;;;;15.75;2.75;;;17.30;99.90;;;;;;4937864;29;20118;-83
2023/04/10 13:14:10;;;;;;;14.65;2.22;;;17.30;99.90;;;;;;4938427;29;20518;-82
2023/04/10 13:16:36;;;;;;;15.23;2.63;;;17.50;99.90;;;;;;4943497;29;20458;-83
2023/04/10 13:19:03;;;;;;;12.73;2.63;;;17.90;99.90;;;;;;4927484;29;20051;-83
2023/04/10 13:21:30;;;;;;;13.32;2.47;;;18.00;99.90;;;;;;4942667;29;20045;-83